Terminal Aerodrome Forecast
Issued by NWS Twin Cities, MN

Home | Current Version | Previous Version | Text Only | Print | Product List | Glossary Off
Versions: 1 2 3 4 5 6 7 8 9 10 11 12 13 14 15 16 17 18 19 20 21 22 23 24 25 26 27

705
FTUS43 KMPX 251732
TAFMSP
TAF
KMSP 251732Z 2518/2624 31015G23KT P6SM BKN045
     FM252100 32012G20KT P6SM SCT050
     FM260100 32007KT P6SM FEW050 SCT100
     FM260700 34005KT P6SM SKC
     FM261600 34008KT P6SM SCT050=

USA.gov is the U.S. government's official web portal to all federal, state and local government web resources and services.